Wetterdaten: Woche 29.12.03 - 04.01.04 (KW1)
Datum Zeit Temperatur Luftfeuchte Luftdruck Regenmenge Wind Richtung Taupunkt Windchill
29.12.2003 00:00 2.3 C 79 % 1010.8 hPa 0.0 l/m 23.3 km/h (4 Bft) W-NW -0.9 C -2.7 C
29.12.2003 01:00 1.9 C 79 % 1011.6 hPa 0.0 l/m 19.3 km/h (3 Bft) W-NW -1.3 C -2.6 C
29.12.2003 02:00 1.8 C 76 % 1012.3 hPa 0.0 l/m 19.3 km/h (3 Bft) W-NW -1.9 C -2.9 C
29.12.2003 03:00 1.4 C 77 % 1012.8 hPa 0.0 l/m 8.5 km/h (2 Bft) W-NW -2.2 C -0.9 C
29.12.2003 04:00 1.0 C 78 % 1013.1 hPa 0.0 l/m 5.0 km/h (1 Bft) W-NW -2.5 C -0.1 C
29.12.2003 05:00 0.8 C 78 % 1013.9 hPa 0.0 l/m 3.4 km/h (1 Bft) W-NW -2.7 C 0.0 C
29.12.2003 06:00 0.2 C 79 % 1013.9 hPa 0.0 l/m 0.2 km/h (0 Bft) N -3.1 C 0.2 C
29.12.2003 07:00 0.0 C 79 % 1013.9 hPa 0.0 l/m 0.0 km/h (0 Bft) N -3.1 C 0.0 C
29.12.2003 08:00 -0.3 C 80 % 1014.7 hPa 0.0 l/m 1.2 km/h (1 Bft) W-SW -3.3 C -0.4 C
29.12.2003 09:00 -0.7 C 82 % 1014.9 hPa 0.0 l/m 2.2 km/h (1 Bft) S -3.3 C -1.1 C
29.12.2003 10:00 0.5 C 84 % 1014.1 hPa 0.0 l/m 5.4 km/h (1 Bft) O-SO -1.9 C -0.8 C
29.12.2003 11:00 1.5 C 76 % 1013.7 hPa 0.0 l/m 1.9 km/h (1 Bft) O-SO -2.4 C 1.2 C
29.12.2003 12:00 2.6 C 58 % 1012.5 hPa 0.0 l/m 0.4 km/h (0 Bft) O-SO -5.0 C 2.5 C
29.12.2003 13:00 4.0 C 50 % 1011.4 hPa 0.0 l/m 1.4 km/h (1 Bft) SW -5.5 C 3.8 C
29.12.2003 14:00 4.0 C 48 % 1010.8 hPa 0.0 l/m 8.7 km/h (2 Bft) O-SO -5.9 C 1.9 C
29.12.2003 15:00 2.9 C 54 % 1010.0 hPa 0.0 l/m 13.3 km/h (3 Bft) O-SO -5.4 C -0.4 C
29.12.2003 16:00 1.7 C 63 % 1009.7 hPa 0.0 l/m 11.0 km/h (2 Bft) O-SO -4.6 C -1.1 C
29.12.2003 17:00 0.2 C 72 % 1009.7 hPa 0.0 l/m 0.4 km/h (0 Bft) N-NO -4.2 C 0.2 C
29.12.2003 18:00 -0.1 C 74 % 1009.4 hPa 0.0 l/m 0.5 km/h (0 Bft) N-NO -4.1 C -0.1 C
29.12.2003 19:00 -0.4 C 76 % 1008.7 hPa 0.0 l/m 0.8 km/h (0 Bft) N -4.2 C -0.4 C
29.12.2003 20:00 -1.3 C 76 % 1008.9 hPa 0.0 l/m 0.0 km/h (0 Bft) N -4.9 C -1.3 C
29.12.2003 21:00 -1.9 C 80 % 1009.7 hPa 0.0 l/m 0.2 km/h (0 Bft) N-NO -4.8 C -1.9 C
29.12.2003 22:00 -0.3 C 75 % 1009.7 hPa 0.0 l/m 2.5 km/h (1 Bft) O-SO -4.2 C -1.0 C
29.12.2003 23:00 0.4 C 73 % 1009.7 hPa 0.0 l/m 3.5 km/h (1 Bft) O-SO -3.9 C -0.5 C
30.12.2003 00:00 0.3 C 76 % 1009.7 hPa 0.0 l/m 1.3 km/h (1 Bft) SO -3.5 C -0.1 C
30.12.2003 01:00 0.1 C 77 % 1009.4 hPa 0.0 l/m 0.9 km/h (0 Bft) SO -3.5 C -0.2 C
30.12.2003 02:00 0.2 C 78 % 1009.4 hPa 0.0 l/m 0.1 km/h (0 Bft) N -3.1 C 0.2 C
30.12.2003 03:00 0.3 C 78 % 1009.7 hPa 0.0 l/m 0.3 km/h (0 Bft) O-SO -3.1 C 0.3 C
30.12.2003 04:00 0.2 C 79 % 1009.7 hPa 0.0 l/m 0.4 km/h (0 Bft) O-SO -3.0 C 0.1 C
30.12.2003 05:00 0.5 C 77 % 1009.7 hPa 0.0 l/m 0.0 km/h (0 Bft) N -3.0 C 0.5 C
30.12.2003 06:00 0.6 C 76 % 1009.9 hPa 0.0 l/m 0.4 km/h (0 Bft) O-SO -3.2 C 0.6 C
30.12.2003 07:00 0.8 C 74 % 1010.8 hPa 0.0 l/m 0.1 km/h (0 Bft) N -3.3 C 0.8 C
30.12.2003 08:00 0.9 C 71 % 1011.3 hPa 0.0 l/m 0.2 km/h (0 Bft) N -3.8 C 0.9 C
30.12.2003 09:00 0.8 C 71 % 1011.8 hPa 0.0 l/m 0.1 km/h (0 Bft) N -3.8 C 0.8 C
30.12.2003 10:00 1.1 C 71 % 1012.8 hPa 0.0 l/m 1.4 km/h (1 Bft) O-SO -3.6 C 0.8 C
30.12.2003 11:00 1.4 C 69 % 1012.6 hPa 0.0 l/m 3.9 km/h (1 Bft) O -3.6 C 0.5 C
30.12.2003 12:00 1.5 C 70 % 1011.8 hPa 0.0 l/m 5.7 km/h (1 Bft) O-SO -3.5 C -0.1 C
30.12.2003 13:00 1.4 C 71 % 1011.8 hPa 0.0 l/m 1.6 km/h (1 Bft) O-SO -3.3 C 1.1 C
30.12.2003 14:00 1.3 C 72 % 1012.4 hPa 0.0 l/m 2.8 km/h (1 Bft) O-SO -3.2 C 0.7 C
30.12.2003 15:00 1.2 C 74 % 1012.8 hPa 0.0 l/m 1.9 km/h (1 Bft) O-SO -2.8 C 0.7 C
30.12.2003 16:00 0.8 C 76 % 1013.3 hPa 0.0 l/m 0.5 km/h (0 Bft) O-SO -2.9 C 0.8 C
30.12.2003 17:00 0.6 C 77 % 1013.9 hPa 0.0 l/m 0.0 km/h (0 Bft) N -3.1 C 0.6 C
30.12.2003 18:00 0.4 C 83 % 1014.1 hPa 0.0 l/m 0.1 km/h (0 Bft) N -2.1 C 0.4 C
30.12.2003 19:00 0.0 C 89 % 1014.9 hPa 0.0 l/m 0.1 km/h (0 Bft) N -1.6 C 0.0 C
30.12.2003 20:00 -0.1 C 92 % 1015.5 hPa 0.0 l/m 0.0 km/h (0 Bft) N -1.2 C -0.1 C
30.12.2003 21:00 -0.1 C 93 % 1016.0 hPa 0.0 l/m 0.0 km/h (0 Bft) N -1.1 C -0.1 C
30.12.2003 22:00 -0.2 C 94 % 1016.0 hPa 0.0 l/m 0.0 km/h (0 Bft) N -1.0 C -0.2 C
30.12.2003 23:00 -0.3 C 95 % 1016.2 hPa 0.0 l/m 0.0 km/h (0 Bft) N -1.0 C -0.3 C
31.12.2003 00:00 -0.4 C 96 % 1016.0 hPa 0.0 l/m 0.3 km/h (0 Bft) NW -1.0 C -0.4 C
31.12.2003 01:00 -0.5 C 97 % 1016.0 hPa 0.0 l/m 0.0 km/h (0 Bft) N -0.9 C -0.5 C
31.12.2003 02:00 -0.4 C 97 % 1016.4 hPa 0.0 l/m 0.0 km/h (0 Bft) N -0.9 C -0.4 C
31.12.2003 03:00 -0.4 C 95 % 1016.9 hPa 0.0 l/m 0.0 km/h (0 Bft) N -1.1 C -0.4 C
31.12.2003 04:00 -0.4 C 95 % 1017.0 hPa 0.0 l/m 0.0 km/h (0 Bft) N -1.1 C -0.4 C
31.12.2003 05:00 -0.4 C 97 % 1017.0 hPa 0.0 l/m 0.0 km/h (0 Bft) N -0.9 C -0.4 C
31.12.2003 06:00 -0.4 C 97 % 1017.0 hPa 0.3 l/m 0.0 km/h (0 Bft) N -0.8 C -0.4 C
31.12.2003 07:00 -0.4 C 99 % 1017.4 hPa 0.0 l/m 0.0 km/h (0 Bft) N -0.6 C -0.4 C
31.12.2003 08:00 -0.5 C 99 % 1018.1 hPa 0.3 l/m 0.0 km/h (0 Bft) N -0.6 C -0.5 C
31.12.2003 09:00 -0.4 C 99 % 1019.0 hPa 0.0 l/m 0.0 km/h (0 Bft) N -0.5 C -0.4 C
31.12.2003 10:00 0.1 C 99 % 1019.2 hPa 0.0 l/m 0.0 km/h (0 Bft) N -0.1 C 0.1 C
31.12.2003 11:00 0.5 C 96 % 1019.4 hPa 0.0 l/m 0.0 km/h (0 Bft) N -0.2 C 0.5 C
31.12.2003 12:00 0.5 C 94 % 1019.1 hPa 0.3 l/m 0.1 km/h (0 Bft) N -0.4 C 0.5 C
31.12.2003 13:00 1.0 C 93 % 1019.1 hPa 0.0 l/m 0.0 km/h (0 Bft) N 0.1 C 1.0 C
31.12.2003 14:00 1.5 C 89 % 1019.5 hPa 0.0 l/m 0.0 km/h (0 Bft) N -0.1 C 1.5 C
31.12.2003 15:00 1.2 C 86 % 1020.1 hPa 0.0 l/m 0.0 km/h (0 Bft) N -1.0 C 1.2 C
31.12.2003 16:00 0.9 C 82 % 1020.8 hPa 0.0 l/m 0.1 km/h (0 Bft) N -1.9 C 0.9 C
31.12.2003 17:00 0.7 C 82 % 1021.2 hPa 0.0 l/m 0.1 km/h (0 Bft) N -2.0 C 0.7 C
31.12.2003 18:00 0.7 C 80 % 1021.4 hPa 0.0 l/m 0.9 km/h (0 Bft) N-NO -2.3 C 0.6 C
31.12.2003 19:00 0.6 C 80 % 1022.1 hPa 0.0 l/m 2.6 km/h (1 Bft) N -2.5 C -0.2 C
31.12.2003 20:00 0.4 C 79 % 1022.2 hPa 0.0 l/m 0.4 km/h (0 Bft) N-NW -2.9 C 0.4 C
31.12.2003 21:00 0.3 C 78 % 1022.2 hPa 0.0 l/m 0.2 km/h (0 Bft) N-NO -3.2 C 0.3 C
31.12.2003 22:00 0.1 C 77 % 1022.2 hPa 0.0 l/m 0.2 km/h (0 Bft) N -3.3 C 0.1 C
31.12.2003 23:00 0.1 C 78 % 1021.3 hPa 0.0 l/m 0.0 km/h (0 Bft) N -3.3 C 0.1 C
01.01.2004 00:00 -0.0 C 78 % 1021.1 hPa 0.0 l/m 0.4 km/h (0 Bft) O -3.3 C -0.0 C
01.01.2004 01:00 -0.2 C 79 % 1020.1 hPa 0.0 l/m 1.5 km/h (1 Bft) O -3.4 C -0.6 C
01.01.2004 02:00 -0.1 C 77 % 1020.4 hPa 0.0 l/m 0.5 km/h (0 Bft) N-NO -3.6 C -0.1 C
01.01.2004 03:00 -0.2 C 75 % 1020.1 hPa 0.0 l/m 1.3 km/h (1 Bft) N-NO -4.1 C -0.4 C
01.01.2004 04:00 -0.4 C 75 % 1019.4 hPa 0.0 l/m 7.0 km/h (2 Bft) N-NO -4.3 C -2.7 C
01.01.2004 05:00 -0.6 C 76 % 1018.7 hPa 0.0 l/m 7.6 km/h (2 Bft) N-NO -4.2 C -3.1 C
01.01.2004 06:00 -0.7 C 78 % 1018.1 hPa 0.0 l/m 3.2 km/h (1 Bft) N-NO -4.1 C -1.7 C
01.01.2004 07:00 -0.8 C 78 % 1018.1 hPa 0.0 l/m 0.4 km/h (0 Bft) N-NO -4.2 C -0.9 C
01.01.2004 08:00 -0.8 C 79 % 1017.4 hPa 0.0 l/m 3.4 km/h (1 Bft) N-NO -4.1 C -1.9 C
01.01.2004 09:00 -0.5 C 76 % 1016.8 hPa 0.0 l/m 2.3 km/h (1 Bft) N-NO -4.1 C -1.1 C
01.01.2004 10:00 -0.2 C 75 % 1015.8 hPa 0.0 l/m 3.3 km/h (1 Bft) N-NO -4.0 C -1.1 C
01.01.2004 11:00 -0.1 C 75 % 1014.1 hPa 0.0 l/m 4.0 km/h (1 Bft) N-NO -4.0 C -1.3 C
01.01.2004 12:00 0.0 C 75 % 1013.3 hPa 0.0 l/m 3.6 km/h (1 Bft) O-SO -3.9 C -0.9 C
01.01.2004 13:00 0.1 C 76 % 1012.0 hPa 0.0 l/m 2.0 km/h (1 Bft) O-SO -3.7 C -0.5 C
01.01.2004 14:00 0.1 C 76 % 1011.8 hPa 0.0 l/m 0.1 km/h (0 Bft) N -3.7 C 0.1 C
01.01.2004 15:00 0.0 C 77 % 1011.2 hPa 0.0 l/m 1.9 km/h (1 Bft) O -3.5 C -0.3 C
01.01.2004 16:00 -0.3 C 77 % 1010.8 hPa 0.0 l/m 0.1 km/h (0 Bft) O-SO -3.8 C -0.3 C
01.01.2004 17:00 -0.4 C 79 % 1010.8 hPa 0.0 l/m 0.9 km/h (0 Bft) O-SO -3.5 C -0.4 C
01.01.2004 18:00 -0.5 C 82 % 1009.9 hPa 0.0 l/m 3.6 km/h (1 Bft) O-SO -3.2 C -1.5 C
01.01.2004 19:00 -0.7 C 87 % 1009.7 hPa 0.3 l/m 0.2 km/h (0 Bft) N -2.6 C -0.7 C
01.01.2004 20:00 -0.9 C 91 % 1009.7 hPa 0.3 l/m 0.0 km/h (0 Bft) N -2.1 C -0.9 C
01.01.2004 21:00 -0.9 C 94 % 1009.7 hPa 0.7 l/m 0.0 km/h (0 Bft) N -1.8 C -0.9 C
01.01.2004 22:00 -0.9 C 95 % 1009.1 hPa 0.3 l/m 0.0 km/h (0 Bft) N -1.5 C -0.9 C
01.01.2004 23:00 -1.0 C 97 % 1008.7 hPa 0.3 l/m 0.0 km/h (0 Bft) N -1.4 C -1.0 C
02.01.2004 00:00 -1.2 C 96 % 1008.7 hPa 0.3 l/m 0.0 km/h (0 Bft) N -1.8 C -1.2 C
02.01.2004 01:00 -1.3 C 98 % 1008.7 hPa 0.0 l/m 0.0 km/h (0 Bft) N -1.5 C -1.3 C
02.01.2004 02:00 -1.3 C 98 % 1008.7 hPa 0.0 l/m 0.0 km/h (0 Bft) N -1.6 C -1.3 C
02.01.2004 03:00 -1.3 C 99 % 1008.7 hPa 0.3 l/m 0.0 km/h (0 Bft) N -1.5 C -1.3 C
02.01.2004 04:00 -1.3 C 99 % 1008.7 hPa 0.0 l/m 0.0 km/h (0 Bft) N -1.5 C -1.3 C
02.01.2004 05:00 -1.3 C 99 % 1008.7 hPa 0.3 l/m 0.0 km/h (0 Bft) N -1.5 C -1.3 C
02.01.2004 06:00 -1.3 C 99 % 1008.7 hPa 0.0 l/m 0.0 km/h (0 Bft) N -1.5 C -1.3 C
02.01.2004 07:00 -1.4 C 99 % 1009.0 hPa 0.3 l/m 0.0 km/h (0 Bft) N -1.5 C -1.4 C
02.01.2004 08:00 -1.2 C 99 % 1009.7 hPa 0.3 l/m 0.0 km/h (0 Bft) N -1.4 C -1.2 C
02.01.2004 09:00 -1.3 C 99 % 1010.2 hPa 0.0 l/m 0.0 km/h (0 Bft) N -1.5 C -1.3 C
02.01.2004 10:00 -0.4 C 97 % 1010.8 hPa 0.0 l/m 0.0 km/h (0 Bft) N -0.8 C -0.4 C
02.01.2004 11:00 0.5 C 87 % 1010.8 hPa 0.0 l/m 0.0 km/h (0 Bft) N -1.3 C 0.5 C
02.01.2004 12:00 0.3 C 83 % 1010.8 hPa 0.0 l/m 1.6 km/h (1 Bft) O-SO -2.2 C -0.1 C
02.01.2004 13:00 -0.2 C 82 % 1010.9 hPa 0.0 l/m 6.4 km/h (2 Bft) O -2.8 C -1.9 C
02.01.2004 14:00 -0.6 C 81 % 1011.8 hPa 0.0 l/m 3.4 km/h (1 Bft) N-NO -3.3 C -1.6 C
02.01.2004 15:00 -0.7 C 81 % 1012.8 hPa 0.0 l/m 1.3 km/h (1 Bft) NO -3.5 C -1.1 C
02.01.2004 16:00 -1.2 C 83 % 1013.7 hPa 0.0 l/m 3.0 km/h (1 Bft) NO -3.7 C -2.2 C
02.01.2004 17:00 -1.6 C 83 % 1014.6 hPa 0.0 l/m 1.7 km/h (1 Bft) NO -4.2 C -2.0 C
02.01.2004 18:00 -2.1 C 80 % 1015.2 hPa 0.0 l/m 3.3 km/h (1 Bft) NO -5.1 C -3.0 C
02.01.2004 19:00 -2.2 C 78 % 1016.0 hPa 0.0 l/m 5.9 km/h (2 Bft) N-NO -5.5 C -4.3 C
02.01.2004 20:00 -2.3 C 76 % 1017.0 hPa 0.0 l/m 9.4 km/h (2 Bft) N-NO -5.9 C -5.4 C
02.01.2004 21:00 -2.4 C 76 % 1017.4 hPa 0.0 l/m 4.2 km/h (1 Bft) N-NO -6.0 C -3.7 C
02.01.2004 22:00 -2.6 C 75 % 1018.1 hPa 0.0 l/m 6.3 km/h (2 Bft) N-NO -6.4 C -4.7 C
02.01.2004 23:00 -2.8 C 74 % 1018.1 hPa 0.0 l/m 3.9 km/h (1 Bft) NO -6.8 C -3.9 C
03.01.2004 00:00 -3.0 C 73 % 1018.1 hPa 0.0 l/m 4.2 km/h (1 Bft) O-SO -7.1 C -4.3 C
03.01.2004 01:00 -3.2 C 72 % 1018.2 hPa 0.0 l/m 9.0 km/h (2 Bft) O-SO -7.5 C -6.4 C
03.01.2004 02:00 -3.3 C 72 % 1019.0 hPa 0.0 l/m 3.5 km/h (1 Bft) O-SO -7.6 C -4.4 C
03.01.2004 03:00 -3.5 C 72 % 1019.1 hPa 0.0 l/m 1.1 km/h (0 Bft) O -7.8 C -3.6 C
03.01.2004 04:00 -3.6 C 72 % 1019.1 hPa 0.0 l/m 1.8 km/h (1 Bft) O-SO -7.9 C -4.1 C
03.01.2004 05:00 -3.6 C 73 % 1019.3 hPa 0.0 l/m 1.7 km/h (1 Bft) O -7.8 C -4.2 C
03.01.2004 06:00 -3.7 C 73 % 1020.0 hPa 0.0 l/m 6.8 km/h (2 Bft) O-SO -7.8 C -6.3 C
03.01.2004 07:00 -3.8 C 72 % 1020.1 hPa 0.0 l/m 7.3 km/h (2 Bft) O-SO -8.1 C -6.6 C
03.01.2004 08:00 -3.8 C 72 % 1020.8 hPa 0.0 l/m 7.3 km/h (2 Bft) O-SO -8.2 C -6.5 C
03.01.2004 09:00 -3.8 C 71 % 1021.2 hPa 0.0 l/m 11.3 km/h (2 Bft) O-SO -8.3 C -8.0 C
03.01.2004 10:00 -3.3 C 69 % 1021.2 hPa 0.0 l/m 5.3 km/h (1 Bft) O-SO -8.1 C -5.1 C
03.01.2004 11:00 -3.0 C 67 % 1021.2 hPa 0.0 l/m 6.4 km/h (2 Bft) O-SO -8.3 C -5.5 C
03.01.2004 12:00 -3.0 C 66 % 1021.0 hPa 0.0 l/m 9.6 km/h (2 Bft) O-SO -8.5 C -6.5 C
03.01.2004 13:00 -3.1 C 65 % 1020.2 hPa 0.0 l/m 12.5 km/h (3 Bft) O-SO -8.8 C -7.4 C
03.01.2004 14:00 -3.5 C 64 % 1020.2 hPa 0.0 l/m 17.3 km/h (3 Bft) O-SO -9.3 C -9.1 C
03.01.2004 15:00 -4.2 C 62 % 1020.7 hPa 0.0 l/m 21.8 km/h (4 Bft) O-SO -10.4 C -10.7 C
03.01.2004 16:00 -4.7 C 62 % 1021.2 hPa 0.0 l/m 7.7 km/h (2 Bft) O-SO -10.9 C -7.4 C
03.01.2004 17:00 -5.2 C 63 % 1021.2 hPa 0.0 l/m 4.7 km/h (1 Bft) SO -11.1 C -7.1 C
03.01.2004 18:00 -6.8 C 66 % 1021.2 hPa 0.0 l/m 6.2 km/h (2 Bft) O-SO -12.1 C -9.1 C
03.01.2004 19:00 -7.7 C 69 % 1021.2 hPa 0.0 l/m 0.3 km/h (0 Bft) O-SO -12.4 C -7.9 C
03.01.2004 20:00 -8.3 C 72 % 1021.2 hPa 0.0 l/m 0.0 km/h (0 Bft) N -12.5 C -8.3 C
03.01.2004 21:00 -7.5 C 70 % 1021.2 hPa 0.0 l/m 0.1 km/h (0 Bft) N -12.1 C -7.5 C
03.01.2004 22:00 -8.0 C 68 % 1021.2 hPa 0.0 l/m 0.3 km/h (0 Bft) O -12.9 C -8.0 C
03.01.2004 23:00 -8.9 C 70 % 1021.2 hPa 0.0 l/m 0.0 km/h (0 Bft) N -13.3 C -8.9 C
04.01.2004 00:00 -9.1 C 73 % 1021.2 hPa 0.0 l/m 0.3 km/h (0 Bft) O -12.9 C -9.1 C
04.01.2004 01:00 -7.7 C 75 % 1020.4 hPa 0.0 l/m 0.6 km/h (0 Bft) W-NW -11.5 C -7.9 C
04.01.2004 02:00 -7.7 C 74 % 1021.1 hPa 0.0 l/m 0.4 km/h (0 Bft) W-NW -11.5 C -7.7 C
04.01.2004 03:00 -7.8 C 75 % 1021.2 hPa 0.0 l/m 0.3 km/h (0 Bft) N -11.5 C -8.0 C
04.01.2004 04:00 -7.9 C 75 % 1021.2 hPa 0.0 l/m 1.4 km/h (1 Bft) W-NW -11.6 C -8.5 C
04.01.2004 05:00 -8.0 C 76 % 1020.8 hPa 0.0 l/m 2.2 km/h (1 Bft) W-NW -11.6 C -9.1 C
04.01.2004 06:00 -7.9 C 77 % 1021.2 hPa 0.0 l/m 0.0 km/h (0 Bft) N -11.3 C -7.9 C
04.01.2004 07:00 -8.3 C 77 % 1021.2 hPa 0.0 l/m 1.5 km/h (1 Bft) W-NW -11.5 C -8.9 C
04.01.2004 08:00 -8.4 C 76 % 1021.2 hPa 0.0 l/m 0.3 km/h (0 Bft) W-NW -11.8 C -8.5 C
04.01.2004 09:00 -7.6 C 76 % 1021.2 hPa 0.0 l/m 0.0 km/h (0 Bft) N -11.0 C -7.6 C
04.01.2004 10:00 -6.4 C 72 % 1021.2 hPa 0.0 l/m 2.3 km/h (1 Bft) SO -10.7 C -7.2 C
04.01.2004 11:00 -4.9 C 67 % 1021.2 hPa 0.0 l/m 2.1 km/h (1 Bft) SO -10.1 C -5.6 C
04.01.2004 12:00 -3.6 C 65 % 1021.2 hPa 0.0 l/m 4.8 km/h (1 Bft) SO -9.1 C -5.1 C
04.01.2004 13:00 -3.2 C 63 % 1020.2 hPa 0.0 l/m 13.4 km/h (3 Bft) W-NW -9.3 C -7.9 C
04.01.2004 14:00 -3.3 C 62 % 1020.3 hPa 0.0 l/m 15.7 km/h (3 Bft) W-NW -9.5 C -8.4 C
04.01.2004 15:00 -3.1 C 63 % 1021.2 hPa 0.0 l/m 15.3 km/h (3 Bft) W-NW -9.1 C -8.2 C
04.01.2004 16:00 -3.0 C 65 % 1021.7 hPa 0.0 l/m 11.9 km/h (2 Bft) W -8.6 C -7.0 C
04.01.2004 17:00 -3.1 C 68 % 1022.2 hPa 0.0 l/m 3.4 km/h (1 Bft) W-SW -8.2 C -4.0 C
04.01.2004 18:00 -3.2 C 70 % 1022.7 hPa 0.0 l/m 2.9 km/h (1 Bft) SO -7.8 C -4.0 C
04.01.2004 19:00 -3.0 C 70 % 1023.0 hPa 0.0 l/m 1.9 km/h (1 Bft) S-SO -7.7 C -3.4 C
04.01.2004 20:00 -3.0 C 69 % 1023.3 hPa 0.0 l/m 3.9 km/h (1 Bft) SO -7.9 C -4.1 C
04.01.2004 21:00 -3.4 C 70 % 1023.3 hPa 0.0 l/m 6.2 km/h (2 Bft) W -8.2 C -5.7 C
04.01.2004 22:00 -3.4 C 69 % 1023.3 hPa 0.0 l/m 3.3 km/h (1 Bft) W -8.3 C -4.5 C
04.01.2004 23:00 -3.3 C 70 % 1023.3 hPa 0.0 l/m 8.0 km/h (2 Bft) SO -8.0 C -6.2 C
Min-Datum _ 04.01.04 29.12.03 29.12.03 - 29.12.03 - 04.01.04 04.01.04
_ Min-Zeit 00:00 14:15 18:39 - 05:24 - 00:00 05:09
Minimum _ -9.7 C 45 % 1008.7 hPa - 0.0 km/h (0 Bft) - -14.1 C -13.2 C
Max-Datum _ 29.12.03 31.12.03 04.01.04 01.01.04 03.01.04 - 31.12.03 29.12.03
_ Max-Zeit 13:54 07:30 18:33 20:00 15:15 - 14:06 13:54
Maximum _ 4.9 C 99 % 1023.3 hPa 0.7 l/m 30.9 km/h
O-SO (5 Bft)
- 0.5 C 4.9 C
Durchschnitt _ -1.5 C 78 % 1015.9 hPa #4.9 l/m 3.0 km/h (1 Bft) O-SO -4.8 C -2.3 C

Durchschnitt Minimum Temp.-1.7 C
Durchschnitt Maximum Temp.-1.2 C
© Kaiko 2004